sensor_id;sensor_type;location;lat;lon;timestamp;P1;durP1;ratioP1;P2;durP2;ratioP2
41470;SDS011;27211;51.220;5.308;2022-08-24T00:01:16;9.15;;;7.40;;
41470;SDS011;27211;51.220;5.308;2022-08-24T00:03:43;10.82;;;6.95;;
41470;SDS011;27211;51.220;5.308;2022-08-24T00:06:13;10.70;;;7.68;;
41470;SDS011;27211;51.220;5.308;2022-08-24T00:08:43;10.25;;;7.97;;
41470;SDS011;27211;51.220;5.308;2022-08-24T00:11:09;10.07;;;8.35;;
41470;SDS011;27211;51.220;5.308;2022-08-24T00:13:35;10.30;;;8.25;;
41470;SDS011;27211;51.220;5.308;2022-08-24T00:16:03;12.90;;;8.90;;
41470;SDS011;27211;51.220;5.308;2022-08-24T00:18:29;11.82;;;8.95;;
41470;SDS011;27211;51.220;5.308;2022-08-24T00:20:55;13.65;;;10.60;;
41470;SDS011;27211;51.220;5.308;2022-08-24T00:23:21;15.98;;;10.98;;
41470;SDS011;27211;51.220;5.308;2022-08-24T00:25:47;14.05;;;11.65;;
41470;SDS011;27211;51.220;5.308;2022-08-24T00:28:12;14.27;;;10.40;;
41470;SDS011;27211;51.220;5.308;2022-08-24T00:30:39;13.93;;;11.30;;
41470;SDS011;27211;51.220;5.308;2022-08-24T00:33:06;15.20;;;10.82;;
41470;SDS011;27211;51.220;5.308;2022-08-24T00:35:32;11.73;;;10.38;;
41470;SDS011;27211;51.220;5.308;2022-08-24T00:37:58;10.98;;;8.93;;
41470;SDS011;27211;51.220;5.308;2022-08-24T00:40:27;11.35;;;8.25;;
41470;SDS011;27211;51.220;5.308;2022-08-24T00:42:58;12.32;;;8.40;;
41470;SDS011;27211;51.220;5.308;2022-08-24T00:45:27;10.50;;;7.78;;
41470;SDS011;27211;51.220;5.308;2022-08-24T00:47:58;10.30;;;7.88;;
41470;SDS011;27211;51.220;5.308;2022-08-24T00:53:49;10.90;;;8.50;;
41470;SDS011;27211;51.220;5.308;2022-08-24T00:58:35;12.07;;;9.77;;
41470;SDS011;27211;51.220;5.308;2022-08-24T01:01:05;11.90;;;9.15;;
41470;SDS011;27211;51.220;5.308;2022-08-24T01:03:34;14.10;;;10.23;;
41470;SDS011;27211;51.220;5.308;2022-08-24T01:06:02;15.13;;;10.45;;
41470;SDS011;27211;51.220;5.308;2022-08-24T01:08:29;13.35;;;10.30;;
41470;SDS011;27211;51.220;5.308;2022-08-24T01:10:59;12.73;;;11.23;;
41470;SDS011;27211;51.220;5.308;2022-08-24T01:13:29;17.08;;;12.32;;
41470;SDS011;27211;51.220;5.308;2022-08-24T01:15:57;14.75;;;11.93;;
41470;SDS011;27211;51.220;5.308;2022-08-24T01:18:26;21.05;;;12.75;;
41470;SDS011;27211;51.220;5.308;2022-08-24T01:23:58;19.13;;;14.05;;
41470;SDS011;27211;51.220;5.308;2022-08-24T01:26:31;18.60;;;15.40;;
41470;SDS011;27211;51.220;5.308;2022-08-24T01:29:04;17.80;;;15.73;;
41470;SDS011;27211;51.220;5.308;2022-08-24T01:31:34;21.45;;;16.27;;
41470;SDS011;27211;51.220;5.308;2022-08-24T01:34:00;19.17;;;15.82;;
41470;SDS011;27211;51.220;5.308;2022-08-24T01:39:03;19.83;;;17.42;;
41470;SDS011;27211;51.220;5.308;2022-08-24T01:41:45;22.48;;;18.52;;
41470;SDS011;27211;51.220;5.308;2022-08-24T01:44:12;22.20;;;19.60;;
41470;SDS011;27211;51.220;5.308;2022-08-24T01:46:41;21.13;;;18.35;;
41470;SDS011;27211;51.220;5.308;2022-08-24T01:49:08;21.42;;;16.77;;
41470;SDS011;27211;51.220;5.308;2022-08-24T01:51:35;23.08;;;18.33;;
41470;SDS011;27211;51.220;5.308;2022-08-24T01:54:01;24.15;;;18.25;;
41470;SDS011;27211;51.220;5.308;2022-08-24T01:56:29;20.25;;;17.95;;
41470;SDS011;27211;51.220;5.308;2022-08-24T01:58:56;26.10;;;19.90;;
41470;SDS011;27211;51.220;5.308;2022-08-24T02:01:22;27.70;;;21.83;;
41470;SDS011;27211;51.220;5.308;2022-08-24T02:03:49;26.27;;;21.52;;
41470;SDS011;27211;51.220;5.308;2022-08-24T02:06:15;28.02;;;22.30;;
41470;SDS011;27211;51.220;5.308;2022-08-24T02:08:42;30.17;;;23.88;;
41470;SDS011;27211;51.220;5.308;2022-08-24T02:11:08;32.78;;;25.98;;
41470;SDS011;27211;51.220;5.308;2022-08-24T02:13:35;30.05;;;25.13;;
41470;SDS011;27211;51.220;5.308;2022-08-24T02:16:03;32.88;;;26.13;;
41470;SDS011;27211;51.220;5.308;2022-08-24T02:18:30;36.03;;;26.67;;
41470;SDS011;27211;51.220;5.308;2022-08-24T02:20:58;32.15;;;25.67;;
41470;SDS011;27211;51.220;5.308;2022-08-24T02:23:25;30.92;;;26.48;;
41470;SDS011;27211;51.220;5.308;2022-08-24T02:25:52;35.47;;;26.88;;
41470;SDS011;27211;51.220;5.308;2022-08-24T02:28:18;36.92;;;27.10;;
41470;SDS011;27211;51.220;5.308;2022-08-24T02:30:44;30.92;;;26.02;;
41470;SDS011;27211;51.220;5.308;2022-08-24T02:33:11;34.40;;;26.35;;
41470;SDS011;27211;51.220;5.308;2022-08-24T02:35:37;34.05;;;27.45;;
41470;SDS011;27211;51.220;5.308;2022-08-24T02:38:03;31.65;;;25.83;;
41470;SDS011;27211;51.220;5.308;2022-08-24T02:40:29;29.88;;;25.08;;
41470;SDS011;27211;51.220;5.308;2022-08-24T02:42:56;33.38;;;24.25;;
41470;SDS011;27211;51.220;5.308;2022-08-24T02:45:22;27.70;;;24.35;;
41470;SDS011;27211;51.220;5.308;2022-08-24T02:47:51;31.10;;;24.40;;
41470;SDS011;27211;51.220;5.308;2022-08-24T02:50:17;33.33;;;25.23;;
41470;SDS011;27211;51.220;5.308;2022-08-24T02:52:44;28.10;;;22.98;;
41470;SDS011;27211;51.220;5.308;2022-08-24T02:55:12;27.88;;;22.75;;
41470;SDS011;27211;51.220;5.308;2022-08-24T02:57:41;25.58;;;22.80;;
41470;SDS011;27211;51.220;5.308;2022-08-24T03:00:10;25.88;;;22.35;;
41470;SDS011;27211;51.220;5.308;2022-08-24T03:02:38;26.23;;;22.30;;
41470;SDS011;27211;51.220;5.308;2022-08-24T03:05:04;26.35;;;23.52;;
41470;SDS011;27211;51.220;5.308;2022-08-24T03:07:31;25.35;;;22.02;;
41470;SDS011;27211;51.220;5.308;2022-08-24T03:09:57;20.98;;;18.77;;
41470;SDS011;27211;51.220;5.308;2022-08-24T03:12:23;22.00;;;18.30;;
41470;SDS011;27211;51.220;5.308;2022-08-24T03:14:49;25.30;;;21.00;;
41470;SDS011;27211;51.220;5.308;2022-08-24T03:17:15;24.50;;;20.35;;
41470;SDS011;27211;51.220;5.308;2022-08-24T03:19:41;25.08;;;21.00;;
41470;SDS011;27211;51.220;5.308;2022-08-24T03:22:07;22.75;;;19.05;;
41470;SDS011;27211;51.220;5.308;2022-08-24T03:24:33;25.10;;;19.90;;
41470;SDS011;27211;51.220;5.308;2022-08-24T03:26:59;25.77;;;20.75;;
41470;SDS011;27211;51.220;5.308;2022-08-24T03:29:25;21.10;;;18.63;;
41470;SDS011;27211;51.220;5.308;2022-08-24T03:31:51;20.45;;;17.50;;
41470;SDS011;27211;51.220;5.308;2022-08-24T03:34:17;19.85;;;15.80;;
41470;SDS011;27211;51.220;5.308;2022-08-24T03:36:45;16.05;;;13.63;;
41470;SDS011;27211;51.220;5.308;2022-08-24T03:39:12;15.60;;;13.63;;
41470;SDS011;27211;51.220;5.308;2022-08-24T03:41:38;16.25;;;13.57;;
41470;SDS011;27211;51.220;5.308;2022-08-24T03:44:04;17.05;;;14.82;;
41470;SDS011;27211;51.220;5.308;2022-08-24T03:46:32;18.48;;;16.05;;
41470;SDS011;27211;51.220;5.308;2022-08-24T03:49:01;19.05;;;16.15;;
41470;SDS011;27211;51.220;5.308;2022-08-24T03:51:28;18.05;;;15.88;;
41470;SDS011;27211;51.220;5.308;2022-08-24T03:53:58;17.20;;;14.48;;
41470;SDS011;27211;51.220;5.308;2022-08-24T03:56:24;18.33;;;14.25;;
41470;SDS011;27211;51.220;5.308;2022-08-24T04:32:31;21.45;;;16.85;;
41470;SDS011;27211;51.220;5.308;2022-08-24T04:34:57;25.40;;;18.45;;
41470;SDS011;27211;51.220;5.308;2022-08-24T04:37:23;20.45;;;17.55;;
41470;SDS011;27211;51.220;5.308;2022-08-24T04:39:50;24.77;;;18.55;;
41470;SDS011;27211;51.220;5.308;2022-08-24T04:42:17;23.38;;;18.33;;
41470;SDS011;27211;51.220;5.308;2022-08-24T04:44:43;20.33;;;15.65;;
41470;SDS011;27211;51.220;5.308;2022-08-24T04:47:09;16.13;;;13.85;;
41470;SDS011;27211;51.220;5.308;2022-08-24T04:49:35;18.63;;;14.40;;
41470;SDS011;27211;51.220;5.308;2022-08-24T04:52:02;16.38;;;12.90;;
41470;SDS011;27211;51.220;5.308;2022-08-24T04:54:29;16.35;;;13.35;;
41470;SDS011;27211;51.220;5.308;2022-08-24T04:56:56;17.90;;;13.57;;
41470;SDS011;27211;51.220;5.308;2022-08-24T04:59:21;18.23;;;14.75;;
41470;SDS011;27211;51.220;5.308;2022-08-24T05:01:47;18.55;;;14.00;;
41470;SDS011;27211;51.220;5.308;2022-08-24T05:04:13;16.20;;;12.50;;
41470;SDS011;27211;51.220;5.308;2022-08-24T05:06:40;17.02;;;12.45;;
41470;SDS011;27211;51.220;5.308;2022-08-24T05:09:06;18.65;;;13.40;;
41470;SDS011;27211;51.220;5.308;2022-08-24T05:11:34;15.40;;;13.20;;
41470;SDS011;27211;51.220;5.308;2022-08-24T05:14:01;18.95;;;14.38;;
41470;SDS011;27211;51.220;5.308;2022-08-24T05:16:27;16.77;;;13.38;;
41470;SDS011;27211;51.220;5.308;2022-08-24T05:18:54;16.00;;;12.93;;
41470;SDS011;27211;51.220;5.308;2022-08-24T05:21:21;17.50;;;12.82;;
41470;SDS011;27211;51.220;5.308;2022-08-24T05:23:49;15.75;;;11.68;;
41470;SDS011;27211;51.220;5.308;2022-08-24T05:26:20;15.13;;;10.90;;
41470;SDS011;27211;51.220;5.308;2022-08-24T05:28:52;16.92;;;11.48;;
41470;SDS011;27211;51.220;5.308;2022-08-24T05:31:20;18.13;;;11.68;;
41470;SDS011;27211;51.220;5.308;2022-08-24T05:33:48;17.02;;;12.50;;
41470;SDS011;27211;51.220;5.308;2022-08-24T07:48:20;24.08;;;19.33;;
41470;SDS011;27211;51.220;5.308;2022-08-24T07:50:45;23.35;;;20.38;;
41470;SDS011;27211;51.220;5.308;2022-08-24T07:53:12;25.33;;;20.88;;
41470;SDS011;27211;51.220;5.308;2022-08-24T07:55:38;21.77;;;19.45;;
41470;SDS011;27211;51.220;5.308;2022-08-24T07:58:03;24.05;;;19.08;;
41470;SDS011;27211;51.220;5.308;2022-08-24T08:00:29;25.80;;;19.63;;
41470;SDS011;27211;51.220;5.308;2022-08-24T08:02:55;28.63;;;19.33;;
41470;SDS011;27211;51.220;5.308;2022-08-24T08:05:23;19.88;;;17.85;;
41470;SDS011;27211;51.220;5.308;2022-08-24T08:07:49;20.23;;;17.17;;
41470;SDS011;27211;51.220;5.308;2022-08-24T08:10:16;22.10;;;16.80;;
41470;SDS011;27211;51.220;5.308;2022-08-24T08:12:42;19.30;;;15.30;;
41470;SDS011;27211;51.220;5.308;2022-08-24T08:15:08;20.77;;;16.92;;
41470;SDS011;27211;51.220;5.308;2022-08-24T08:17:35;19.05;;;15.40;;
41470;SDS011;27211;51.220;5.308;2022-08-24T08:20:05;23.73;;;15.98;;
41470;SDS011;27211;51.220;5.308;2022-08-24T08:22:33;20.02;;;15.57;;
41470;SDS011;27211;51.220;5.308;2022-08-24T08:25:17;22.75;;;13.30;;
41470;SDS011;27211;51.220;5.308;2022-08-24T08:27:43;15.77;;;12.35;;
41470;SDS011;27211;51.220;5.308;2022-08-24T08:30:10;17.88;;;11.93;;
41470;SDS011;27211;51.220;5.308;2022-08-24T08:32:36;14.60;;;11.32;;
41470;SDS011;27211;51.220;5.308;2022-08-24T08:35:02;15.68;;;10.77;;
41470;SDS011;27211;51.220;5.308;2022-08-24T08:37:28;16.05;;;11.73;;
41470;SDS011;27211;51.220;5.308;2022-08-24T08:39:55;15.73;;;10.15;;
41470;SDS011;27211;51.220;5.308;2022-08-24T08:51:45;7.53;;;3.83;;
41470;SDS011;27211;51.220;5.308;2022-08-24T09:08:11;11.55;;;5.20;;
41470;SDS011;27211;51.220;5.308;2022-08-24T09:10:47;6.85;;;4.85;;
41470;SDS011;27211;51.220;5.308;2022-08-24T09:13:24;9.32;;;5.18;;
41470;SDS011;27211;51.220;5.308;2022-08-24T09:15:59;6.80;;;4.43;;
41470;SDS011;27211;51.220;5.308;2022-08-24T09:18:49;8.95;;;3.30;;
41470;SDS011;27211;51.220;5.308;2022-08-24T09:24:16;5.88;;;2.80;;
41470;SDS011;27211;51.220;5.308;2022-08-24T09:26:55;7.55;;;3.05;;
41470;SDS011;27211;51.220;5.308;2022-08-24T09:37:29;8.65;;;2.25;;
41470;SDS011;27211;51.220;5.308;2022-08-24T09:40:23;6.40;;;2.55;;
41470;SDS011;27211;51.220;5.308;2022-08-24T10:05:29;6.28;;;2.22;;
41470;SDS011;27211;51.220;5.308;2022-08-24T10:08:24;4.82;;;1.90;;
41470;SDS011;27211;51.220;5.308;2022-08-24T10:25:52;5.57;;;2.38;;
41470;SDS011;27211;51.220;5.308;2022-08-24T10:33:58;5.97;;;3.33;;
41470;SDS011;27211;51.220;5.308;2022-08-24T10:50:55;5.88;;;3.00;;
41470;SDS011;27211;51.220;5.308;2022-08-24T10:53:32;6.95;;;3.20;;
41470;SDS011;27211;51.220;5.308;2022-08-24T10:56:02;6.50;;;2.80;;
41470;SDS011;27211;51.220;5.308;2022-08-24T10:58:36;7.40;;;2.53;;
41470;SDS011;27211;51.220;5.308;2022-08-24T11:01:24;4.53;;;2.78;;
41470;SDS011;27211;51.220;5.308;2022-08-24T11:03:54;9.90;;;2.75;;
41470;SDS011;27211;51.220;5.308;2022-08-24T11:06:25;7.43;;;2.78;;
41470;SDS011;27211;51.220;5.308;2022-08-24T11:08:58;9.18;;;2.95;;
41470;SDS011;27211;51.220;5.308;2022-08-24T11:11:29;9.38;;;2.47;;
41470;SDS011;27211;51.220;5.308;2022-08-24T11:14:01;7.22;;;2.65;;
41470;SDS011;27211;51.220;5.308;2022-08-24T11:16:39;6.43;;;2.50;;
41470;SDS011;27211;51.220;5.308;2022-08-24T11:19:13;8.52;;;2.60;;
41470;SDS011;27211;51.220;5.308;2022-08-24T11:21:52;5.72;;;2.10;;
41470;SDS011;27211;51.220;5.308;2022-08-24T11:26:59;6.60;;;2.20;;
41470;SDS011;27211;51.220;5.308;2022-08-24T11:37:52;9.85;;;2.30;;
41470;SDS011;27211;51.220;5.308;2022-08-24T11:40:24;3.78;;;1.83;;
41470;SDS011;27211;51.220;5.308;2022-08-24T11:48:28;6.32;;;1.70;;
41470;SDS011;27211;51.220;5.308;2022-08-24T11:53:51;5.03;;;1.83;;
41470;SDS011;27211;51.220;5.308;2022-08-24T11:56:22;4.82;;;1.40;;
41470;SDS011;27211;51.220;5.308;2022-08-24T12:02:04;4.60;;;1.40;;
41470;SDS011;27211;51.220;5.308;2022-08-24T12:07:13;7.18;;;1.40;;
41470;SDS011;27211;51.220;5.308;2022-08-24T12:09:44;6.07;;;1.60;;
41470;SDS011;27211;51.220;5.308;2022-08-24T12:15:16;8.25;;;1.70;;
41470;SDS011;27211;51.220;5.308;2022-08-24T12:17:56;8.30;;;2.38;;
41470;SDS011;27211;51.220;5.308;2022-08-24T12:20:40;5.78;;;1.80;;
41470;SDS011;27211;51.220;5.308;2022-08-24T12:23:51;5.20;;;2.00;;
41470;SDS011;27211;51.220;5.308;2022-08-24T12:26:03;7.90;;;1.70;;
41470;SDS011;27211;51.220;5.308;2022-08-24T12:28:41;3.80;;;1.63;;
41470;SDS011;27211;51.220;5.308;2022-08-24T12:31:47;4.55;;;1.70;;
41470;SDS011;27211;51.220;5.308;2022-08-24T12:34:49;3.97;;;1.55;;
41470;SDS011;27211;51.220;5.308;2022-08-24T12:37:07;6.03;;;1.90;;
41470;SDS011;27211;51.220;5.308;2022-08-24T12:43:01;4.30;;;1.73;;
41470;SDS011;27211;51.220;5.308;2022-08-24T12:45:28;8.48;;;1.90;;
41470;SDS011;27211;51.220;5.308;2022-08-24T12:50:35;5.97;;;1.58;;
41470;SDS011;27211;51.220;5.308;2022-08-24T13:01:03;5.70;;;1.85;;
41470;SDS011;27211;51.220;5.308;2022-08-24T13:03:37;6.70;;;1.33;;
41470;SDS011;27211;51.220;5.308;2022-08-24T13:06:07;5.20;;;1.45;;
41470;SDS011;27211;51.220;5.308;2022-08-24T13:08:44;7.10;;;1.85;;
41470;SDS011;27211;51.220;5.308;2022-08-24T13:11:30;4.13;;;1.80;;
41470;SDS011;27211;51.220;5.308;2022-08-24T13:21:58;4.70;;;1.50;;
41470;SDS011;27211;51.220;5.308;2022-08-24T13:29:39;7.43;;;1.92;;
41470;SDS011;27211;51.220;5.308;2022-08-24T13:32:06;5.30;;;1.50;;
41470;SDS011;27211;51.220;5.308;2022-08-24T13:34:42;2.78;;;1.20;;
41470;SDS011;27211;51.220;5.308;2022-08-24T13:37:17;8.70;;;1.90;;
41470;SDS011;27211;51.220;5.308;2022-08-24T14:01:49;4.03;;;1.70;;
41470;SDS011;27211;51.220;5.308;2022-08-24T14:08:04;4.15;;;1.50;;
41470;SDS011;27211;51.220;5.308;2022-08-24T14:18:57;5.80;;;1.92;;
41470;SDS011;27211;51.220;5.308;2022-08-24T14:21:44;4.25;;;1.80;;
41470;SDS011;27211;51.220;5.308;2022-08-24T14:24:22;8.68;;;2.10;;
41470;SDS011;27211;51.220;5.308;2022-08-24T14:50:22;5.95;;;1.50;;
41470;SDS011;27211;51.220;5.308;2022-08-24T14:53:40;5.05;;;1.60;;
41470;SDS011;27211;51.220;5.308;2022-08-24T14:56:26;5.50;;;2.20;;
41470;SDS011;27211;51.220;5.308;2022-08-24T15:10:19;7.10;;;2.10;;
41470;SDS011;27211;51.220;5.308;2022-08-24T15:12:52;5.85;;;2.00;;
41470;SDS011;27211;51.220;5.308;2022-08-24T15:23:18;5.25;;;2.03;;
41470;SDS011;27211;51.220;5.308;2022-08-24T15:25:52;4.82;;;1.90;;
41470;SDS011;27211;51.220;5.308;2022-08-24T15:28:24;6.75;;;2.10;;
41470;SDS011;27211;51.220;5.308;2022-08-24T15:30:57;4.63;;;1.98;;
41470;SDS011;27211;51.220;5.308;2022-08-24T15:33:30;5.28;;;2.00;;
41470;SDS011;27211;51.220;5.308;2022-08-24T15:36:03;8.50;;;1.70;;
41470;SDS011;27211;51.220;5.308;2022-08-24T15:38:37;7.32;;;2.03;;
41470;SDS011;27211;51.220;5.308;2022-08-24T15:41:10;9.02;;;2.22;;
41470;SDS011;27211;51.220;5.308;2022-08-24T15:43:44;5.55;;;2.00;;
41470;SDS011;27211;51.220;5.308;2022-08-24T15:46:25;6.00;;;2.22;;
41470;SDS011;27211;51.220;5.308;2022-08-24T15:49:17;8.18;;;1.98;;
41470;SDS011;27211;51.220;5.308;2022-08-24T15:54:34;5.68;;;2.35;;
41470;SDS011;27211;51.220;5.308;2022-08-24T15:59:51;9.90;;;2.08;;
41470;SDS011;27211;51.220;5.308;2022-08-24T16:02:25;8.55;;;2.05;;
41470;SDS011;27211;51.220;5.308;2022-08-24T17:59:01;7.38;;;2.08;;
41470;SDS011;27211;51.220;5.308;2022-08-24T18:01:51;6.80;;;2.50;;
41470;SDS011;27211;51.220;5.308;2022-08-24T18:04:19;6.82;;;2.13;;
41470;SDS011;27211;51.220;5.308;2022-08-24T18:06:47;9.35;;;2.03;;
41470;SDS011;27211;51.220;5.308;2022-08-24T18:09:16;6.57;;;2.50;;
41470;SDS011;27211;51.220;5.308;2022-08-24T18:11:46;11.07;;;2.42;;
41470;SDS011;27211;51.220;5.308;2022-08-24T18:14:12;7.35;;;2.28;;
41470;SDS011;27211;51.220;5.308;2022-08-24T18:16:39;7.22;;;2.05;;
41470;SDS011;27211;51.220;5.308;2022-08-24T18:19:05;8.85;;;2.40;;
41470;SDS011;27211;51.220;5.308;2022-08-24T18:21:30;4.28;;;1.75;;
41470;SDS011;27211;51.220;5.308;2022-08-24T18:23:56;8.68;;;2.40;;
41470;SDS011;27211;51.220;5.308;2022-08-24T18:26:26;5.85;;;1.90;;
41470;SDS011;27211;51.220;5.308;2022-08-24T18:28:53;6.53;;;2.00;;
41470;SDS011;27211;51.220;5.308;2022-08-24T18:31:21;6.55;;;2.40;;
41470;SDS011;27211;51.220;5.308;2022-08-24T18:33:48;6.85;;;2.10;;
41470;SDS011;27211;51.220;5.308;2022-08-24T18:36:14;9.25;;;1.90;;
41470;SDS011;27211;51.220;5.308;2022-08-24T18:38:41;7.68;;;2.20;;
41470;SDS011;27211;51.220;5.308;2022-08-24T18:41:07;5.40;;;2.22;;
41470;SDS011;27211;51.220;5.308;2022-08-24T18:43:34;7.22;;;2.30;;
41470;SDS011;27211;51.220;5.308;2022-08-24T18:46:00;5.07;;;2.08;;
41470;SDS011;27211;51.220;5.308;2022-08-24T18:48:27;7.90;;;2.47;;
41470;SDS011;27211;51.220;5.308;2022-08-24T18:50:53;8.18;;;2.00;;
41470;SDS011;27211;51.220;5.308;2022-08-24T18:53:20;7.65;;;2.70;;
41470;SDS011;27211;51.220;5.308;2022-08-24T18:55:49;6.97;;;2.50;;
41470;SDS011;27211;51.220;5.308;2022-08-24T18:58:15;7.43;;;2.45;;
41470;SDS011;27211;51.220;5.308;2022-08-24T19:00:42;7.60;;;2.40;;
41470;SDS011;27211;51.220;5.308;2022-08-24T19:03:09;9.50;;;2.45;;
41470;SDS011;27211;51.220;5.308;2022-08-24T19:08:05;7.88;;;2.53;;
41470;SDS011;27211;51.220;5.308;2022-08-24T19:10:33;6.75;;;2.22;;
41470;SDS011;27211;51.220;5.308;2022-08-24T19:13:02;9.20;;;3.05;;
41470;SDS011;27211;51.220;5.308;2022-08-24T19:15:35;11.85;;;2.90;;
41470;SDS011;27211;51.220;5.308;2022-08-24T19:18:01;8.30;;;3.05;;
41470;SDS011;27211;51.220;5.308;2022-08-24T19:20:28;11.27;;;3.00;;
41470;SDS011;27211;51.220;5.308;2022-08-24T19:22:54;8.13;;;2.90;;
41470;SDS011;27211;51.220;5.308;2022-08-24T19:25:25;12.48;;;3.22;;
41470;SDS011;27211;51.220;5.308;2022-08-24T19:27:52;10.43;;;2.83;;
41470;SDS011;27211;51.220;5.308;2022-08-24T19:30:19;10.00;;;2.92;;
41470;SDS011;27211;51.220;5.308;2022-08-24T19:32:45;7.60;;;2.80;;
41470;SDS011;27211;51.220;5.308;2022-08-24T19:35:11;7.35;;;3.03;;
41470;SDS011;27211;51.220;5.308;2022-08-24T19:37:39;10.77;;;2.88;;
41470;SDS011;27211;51.220;5.308;2022-08-24T19:40:06;16.05;;;3.20;;
41470;SDS011;27211;51.220;5.308;2022-08-24T19:42:32;8.13;;;3.10;;
41470;SDS011;27211;51.220;5.308;2022-08-24T19:44:58;9.90;;;2.85;;
41470;SDS011;27211;51.220;5.308;2022-08-24T19:47:43;10.93;;;2.95;;
41470;SDS011;27211;51.220;5.308;2022-08-24T19:50:09;11.52;;;3.33;;
41470;SDS011;27211;51.220;5.308;2022-08-24T19:52:36;13.00;;;3.50;;
41470;SDS011;27211;51.220;5.308;2022-08-24T19:55:05;13.95;;;3.45;;
41470;SDS011;27211;51.220;5.308;2022-08-24T19:57:46;10.55;;;3.38;;
41470;SDS011;27211;51.220;5.308;2022-08-24T20:02:46;11.05;;;3.15;;
41470;SDS011;27211;51.220;5.308;2022-08-24T20:05:14;13.88;;;3.40;;
41470;SDS011;27211;51.220;5.308;2022-08-24T20:07:41;7.53;;;2.97;;
41470;SDS011;27211;51.220;5.308;2022-08-24T20:10:08;8.38;;;2.80;;
41470;SDS011;27211;51.220;5.308;2022-08-24T20:12:35;9.32;;;3.17;;
41470;SDS011;27211;51.220;5.308;2022-08-24T20:15:02;13.13;;;3.50;;
41470;SDS011;27211;51.220;5.308;2022-08-24T20:17:29;10.63;;;3.20;;
41470;SDS011;27211;51.220;5.308;2022-08-24T20:19:56;9.38;;;2.70;;
41470;SDS011;27211;51.220;5.308;2022-08-24T20:22:22;6.35;;;2.80;;
41470;SDS011;27211;51.220;5.308;2022-08-24T20:24:49;9.40;;;3.00;;
41470;SDS011;27211;51.220;5.308;2022-08-24T20:27:18;7.45;;;3.03;;
41470;SDS011;27211;51.220;5.308;2022-08-24T20:29:46;12.10;;;2.85;;
41470;SDS011;27211;51.220;5.308;2022-08-24T20:32:12;9.77;;;2.97;;
41470;SDS011;27211;51.220;5.308;2022-08-24T20:34:39;7.85;;;2.92;;
41470;SDS011;27211;51.220;5.308;2022-08-24T20:37:05;10.65;;;3.20;;
41470;SDS011;27211;51.220;5.308;2022-08-24T20:39:31;8.20;;;3.13;;
41470;SDS011;27211;51.220;5.308;2022-08-24T20:41:58;10.73;;;3.58;;
41470;SDS011;27211;51.220;5.308;2022-08-24T20:44:26;10.98;;;3.10;;
41470;SDS011;27211;51.220;5.308;2022-08-24T20:46:52;12.18;;;3.10;;
41470;SDS011;27211;51.220;5.308;2022-08-24T20:49:20;9.00;;;3.55;;
41470;SDS011;27211;51.220;5.308;2022-08-24T20:51:50;11.10;;;3.33;;
41470;SDS011;27211;51.220;5.308;2022-08-24T20:54:16;7.60;;;2.85;;
41470;SDS011;27211;51.220;5.308;2022-08-24T20:56:42;9.07;;;3.35;;
41470;SDS011;27211;51.220;5.308;2022-08-24T20:59:09;13.88;;;3.53;;
41470;SDS011;27211;51.220;5.308;2022-08-24T21:01:37;9.13;;;3.42;;
41470;SDS011;27211;51.220;5.308;2022-08-24T21:04:06;10.13;;;3.67;;
41470;SDS011;27211;51.220;5.308;2022-08-24T21:06:37;10.23;;;4.13;;
41470;SDS011;27211;51.220;5.308;2022-08-24T21:09:05;10.90;;;3.40;;
41470;SDS011;27211;51.220;5.308;2022-08-24T21:11:31;9.68;;;3.70;;
41470;SDS011;27211;51.220;5.308;2022-08-24T21:13:58;9.65;;;3.30;;
41470;SDS011;27211;51.220;5.308;2022-08-24T21:16:26;10.05;;;3.60;;
41470;SDS011;27211;51.220;5.308;2022-08-24T21:18:52;8.13;;;3.38;;
41470;SDS011;27211;51.220;5.308;2022-08-24T21:21:19;12.15;;;3.20;;
41470;SDS011;27211;51.220;5.308;2022-08-24T21:23:45;9.73;;;3.70;;
41470;SDS011;27211;51.220;5.308;2022-08-24T21:26:11;10.20;;;3.20;;
41470;SDS011;27211;51.220;5.308;2022-08-24T21:28:39;9.63;;;3.25;;
41470;SDS011;27211;51.220;5.308;2022-08-24T21:31:07;8.27;;;3.30;;
41470;SDS011;27211;51.220;5.308;2022-08-24T21:33:33;7.68;;;3.28;;
41470;SDS011;27211;51.220;5.308;2022-08-24T21:36:18;7.72;;;2.88;;
41470;SDS011;27211;51.220;5.308;2022-08-24T21:38:47;6.65;;;2.85;;
41470;SDS011;27211;51.220;5.308;2022-08-24T21:41:14;9.68;;;3.30;;
41470;SDS011;27211;51.220;5.308;2022-08-24T21:43:40;8.27;;;3.10;;
41470;SDS011;27211;51.220;5.308;2022-08-24T21:46:06;11.10;;;3.22;;
41470;SDS011;27211;51.220;5.308;2022-08-24T21:48:32;7.10;;;3.00;;
41470;SDS011;27211;51.220;5.308;2022-08-24T21:50:57;10.77;;;3.20;;
41470;SDS011;27211;51.220;5.308;2022-08-24T21:53:24;9.77;;;3.00;;
41470;SDS011;27211;51.220;5.308;2022-08-24T21:55:50;8.55;;;3.03;;
41470;SDS011;27211;51.220;5.308;2022-08-24T21:58:18;8.95;;;3.25;;
41470;SDS011;27211;51.220;5.308;2022-08-24T22:00:45;11.93;;;3.20;;
41470;SDS011;27211;51.220;5.308;2022-08-24T22:03:11;6.25;;;3.10;;
41470;SDS011;27211;51.220;5.308;2022-08-24T22:05:37;8.70;;;3.40;;
41470;SDS011;27211;51.220;5.308;2022-08-24T22:08:02;7.28;;;3.10;;
41470;SDS011;27211;51.220;5.308;2022-08-24T22:10:28;7.18;;;3.60;;
41470;SDS011;27211;51.220;5.308;2022-08-24T22:12:55;5.65;;;3.03;;
41470;SDS011;27211;51.220;5.308;2022-08-24T22:15:21;8.80;;;3.30;;
41470;SDS011;27211;51.220;5.308;2022-08-24T22:17:47;7.93;;;3.13;;
41470;SDS011;27211;51.220;5.308;2022-08-24T22:20:14;9.40;;;2.95;;
41470;SDS011;27211;51.220;5.308;2022-08-24T22:22:41;10.23;;;2.95;;
41470;SDS011;27211;51.220;5.308;2022-08-24T22:25:08;5.60;;;2.83;;
41470;SDS011;27211;51.220;5.308;2022-08-24T22:27:46;7.55;;;3.08;;
41470;SDS011;27211;51.220;5.308;2022-08-24T22:30:13;8.45;;;3.50;;
41470;SDS011;27211;51.220;5.308;2022-08-24T22:32:41;10.27;;;3.28;;
41470;SDS011;27211;51.220;5.308;2022-08-24T22:35:11;6.85;;;2.90;;
41470;SDS011;27211;51.220;5.308;2022-08-24T22:37:37;8.60;;;3.33;;
41470;SDS011;27211;51.220;5.308;2022-08-24T22:40:03;7.50;;;3.30;;
41470;SDS011;27211;51.220;5.308;2022-08-24T22:42:30;6.95;;;3.20;;
41470;SDS011;27211;51.220;5.308;2022-08-24T22:44:55;9.90;;;3.35;;
41470;SDS011;27211;51.220;5.308;2022-08-24T22:47:23;7.55;;;3.15;;
41470;SDS011;27211;51.220;5.308;2022-08-24T22:49:50;7.60;;;3.00;;
41470;SDS011;27211;51.220;5.308;2022-08-24T22:52:18;8.63;;;3.40;;
41470;SDS011;27211;51.220;5.308;2022-08-24T22:54:43;5.38;;;3.15;;
41470;SDS011;27211;51.220;5.308;2022-08-24T22:57:09;7.10;;;2.92;;
41470;SDS011;27211;51.220;5.308;2022-08-24T22:59:36;6.63;;;3.13;;
41470;SDS011;27211;51.220;5.308;2022-08-24T23:02:06;9.05;;;3.42;;
41470;SDS011;27211;51.220;5.308;2022-08-24T23:04:34;7.65;;;3.00;;
41470;SDS011;27211;51.220;5.308;2022-08-24T23:07:03;6.18;;;3.47;;
41470;SDS011;27211;51.220;5.308;2022-08-24T23:09:30;9.63;;;3.38;;
41470;SDS011;27211;51.220;5.308;2022-08-24T23:11:56;6.60;;;3.28;;
41470;SDS011;27211;51.220;5.308;2022-08-24T23:14:23;7.75;;;3.10;;
41470;SDS011;27211;51.220;5.308;2022-08-24T23:16:50;7.97;;;3.67;;
41470;SDS011;27211;51.220;5.308;2022-08-24T23:19:17;8.10;;;3.75;;
41470;SDS011;27211;51.220;5.308;2022-08-24T23:22:04;7.40;;;3.22;;
41470;SDS011;27211;51.220;5.308;2022-08-24T23:24:32;8.07;;;3.80;;
41470;SDS011;27211;51.220;5.308;2022-08-24T23:26:59;6.90;;;3.40;;
41470;SDS011;27211;51.220;5.308;2022-08-24T23:29:25;6.68;;;3.30;;
41470;SDS011;27211;51.220;5.308;2022-08-24T23:31:51;8.65;;;3.88;;
41470;SDS011;27211;51.220;5.308;2022-08-24T23:34:20;7.70;;;4.13;;